Aviation Digital Data Service (ADDS)

Output produced by METARs form (0619 UTC 03 July 2022)
found at http://www.aviationweather.gov/metar/data/
 
METAR text: RJTI 030600Z 19005KT 130V260 9999 -SHRA FEW030 SCT100 BKN130 28/25 Q1009
Conditions at: RJTI (TOKYO HELIPORT , JP) observed 0600 UTC 03 July 2022
Temperature: 28.0°C (82°F)
Dewpoint: 25.0°C (77°F) [RH = 84%]
Pressure (altimeter): 29.79 inches Hg (1009.0 mb)
Winds: from the S (190 degrees) at 6 MPH (5 knots; 2.6 m/s)
Visibility: 6 or more miles (10+ km)
Ceiling: 13000 feet AGL
Clouds: few clouds at 3000 feet AGL
scattered clouds at 10000 feet AGL
broken clouds at 13000 feet AGL
Weather: -SHRA  (light rain showers)